Time;durP1;ratioP1;P1;durP2;ratioP2;P2;SDS_P1;SDS_P2;PMS_P1;PMS_P2;Temp;Humidity;BMP_temperature;BMP_pressure;BME280_temperature;BME280_humidity;BME280_pressure;Samples;Min_cycle;Max_cycle;Signal;HPM_P1;HPM_P2
2021/07/18 00:02:16;;;;;;;18.20;10.63;;;;;;;;;;5009536;28;20801;-55
2021/07/18 00:04:42;;;;;;;19.95;10.70;;;;;;;;;;5010004;28;20160;-56
2021/07/18 00:07:08;;;;;;;19.05;10.85;;;;;;;;;;5011573;28;20045;-53
2021/07/18 00:09:34;;;;;;;30.42;12.23;;;;;;;;;;5012347;28;20087;-55
2021/07/18 00:11:59;;;;;;;21.48;11.15;;;;;;;;;;5010381;28;20052;-53
2021/07/18 00:14:25;;;;;;;24.65;11.45;;;;;;;;;;5010364;28;20049;-54
2021/07/18 00:16:51;;;;;;;20.23;11.48;;;;;;;;;;5011373;28;20057;-55
2021/07/18 00:19:17;;;;;;;25.67;11.63;;;;;;;;;;5010859;28;20037;-55
2021/07/18 00:21:43;;;;;;;23.63;11.52;;;;;;;;;;5009318;28;20034;-54
2021/07/18 00:24:09;;;;;;;24.92;11.25;;;;;;;;;;5010155;28;20096;-55
2021/07/18 00:26:34;;;;;;;21.55;10.98;;;;;;;;;;5017226;28;20124;-55
2021/07/18 00:29:00;;;;;;;24.85;11.00;;;;;;;;;;5012199;28;20885;-56
2021/07/18 00:31:26;;;;;;;17.92;11.13;;;;;;;;;;5010252;28;20037;-56
2021/07/18 00:33:52;;;;;;;24.60;12.13;;;;;;;;;;5010864;28;20038;-56
2021/07/18 00:36:19;;;;;;;19.15;11.48;;;;;;;;;;5010344;28;20045;-54
2021/07/18 00:38:45;;;;;;;23.25;12.23;;;;;;;;;;5008958;28;20059;-56
2021/07/18 00:41:11;;;;;;;19.13;11.05;;;;;;;;;;5010284;28;20570;-53
2021/07/18 00:43:37;;;;;;;26.15;10.90;;;;;;;;;;5009621;28;20042;-56
2021/07/18 00:46:03;;;;;;;17.55;11.18;;;;;;;;;;5010751;28;20200;-56
2021/07/18 00:48:29;;;;;;;19.38;11.85;;;;;;;;;;5022902;28;20037;-55
2021/07/18 00:50:56;;;;;;;20.27;11.50;;;;;;;;;;5010824;28;20375;-57
2021/07/18 00:53:21;;;;;;;24.00;11.32;;;;;;;;;;5009367;28;20166;-54
2021/07/18 00:55:48;;;;;;;23.52;11.60;;;;;;;;;;5011119;28;20133;-56
2021/07/18 00:58:14;;;;;;;23.05;12.32;;;;;;;;;;5010561;28;20030;-56
2021/07/18 01:00:40;;;;;;;19.95;10.25;;;;;;;;;;5009550;28;20044;-55
2021/07/18 01:03:07;;;;;;;26.05;12.65;;;;;;;;;;5009956;28;20733;-55
2021/07/18 01:05:33;;;;;;;20.35;12.07;;;;;;;;;;5009516;28;20163;-55
2021/07/18 01:07:59;;;;;;;23.30;12.25;;;;;;;;;;5010199;28;20217;-56
2021/07/18 01:10:25;;;;;;;21.30;12.68;;;;;;;;;;5009721;28;20041;-54
2021/07/18 01:12:51;;;;;;;23.23;12.85;;;;;;;;;;5010776;28;20046;-56
2021/07/18 01:15:17;;;;;;;21.58;12.65;;;;;;;;;;5009145;28;20537;-53
2021/07/18 01:17:43;;;;;;;21.77;12.27;;;;;;;;;;5007535;28;20614;-55
2021/07/18 01:20:09;;;;;;;22.83;12.50;;;;;;;;;;5008801;28;20499;-56
2021/07/18 01:22:35;;;;;;;23.83;13.23;;;;;;;;;;5007418;28;20790;-55
2021/07/18 01:25:03;;;;;;;23.05;12.75;;;;;;;;;;5008976;28;20053;-53
2021/07/18 01:27:29;;;;;;;20.13;12.25;;;;;;;;;;5007826;28;20069;-56
2021/07/18 01:29:56;;;;;;;24.08;13.60;;;;;;;;;;5009965;28;20129;-54
2021/07/18 01:32:22;;;;;;;22.35;13.23;;;;;;;;;;5007172;28;20076;-54
2021/07/18 01:34:49;;;;;;;21.45;13.25;;;;;;;;;;5009823;28;20685;-53
2021/07/18 01:37:15;;;;;;;25.98;14.82;;;;;;;;;;5009291;28;20060;-54
2021/07/18 01:39:41;;;;;;;26.38;14.38;;;;;;;;;;5006731;28;20065;-54
2021/07/18 01:42:07;;;;;;;25.05;13.77;;;;;;;;;;5008457;28;20187;-55
2021/07/18 01:44:33;;;;;;;23.98;14.00;;;;;;;;;;5007790;28;20112;-56
2021/07/18 01:46:59;;;;;;;23.95;14.02;;;;;;;;;;5009926;28;20045;-53
2021/07/18 01:49:24;;;;;;;25.73;15.30;;;;;;;;;;5011681;28;20783;-55
2021/07/18 01:51:50;;;;;;;24.63;13.90;;;;;;;;;;5007421;28;20446;-56
2021/07/18 01:54:16;;;;;;;25.10;14.50;;;;;;;;;;5008997;28;20825;-55
2021/07/18 01:56:42;;;;;;;29.05;14.57;;;;;;;;;;5009798;28;20057;-52
2021/07/18 01:59:08;;;;;;;28.17;15.20;;;;;;;;;;5008721;28;20535;-55
2021/07/18 02:01:34;;;;;;;26.80;14.93;;;;;;;;;;5006850;28;20044;-54
2021/07/18 02:04:02;;;;;;;30.63;15.27;;;;;;;;;;5007981;28;20435;-54
2021/07/18 02:06:28;;;;;;;27.38;15.18;;;;;;;;;;5021154;28;20029;-52
2021/07/18 02:08:55;;;;;;;29.60;15.70;;;;;;;;;;5010067;28;20038;-53
2021/07/18 02:11:21;;;;;;;27.95;15.27;;;;;;;;;;5008066;28;20145;-55
2021/07/18 02:13:51;;;;;;;29.25;16.27;;;;;;;;;;5007582;28;20745;-53
2021/07/18 02:16:17;;;;;;;34.25;17.08;;;;;;;;;;5009025;28;20053;-55
2021/07/18 02:18:43;;;;;;;27.15;16.85;;;;;;;;;;5009643;28;20052;-56
2021/07/18 02:21:09;;;;;;;29.45;16.85;;;;;;;;;;5008297;28;20044;-55
2021/07/18 02:23:35;;;;;;;28.40;17.50;;;;;;;;;;5007742;28;21861;-56
2021/07/18 02:26:01;;;;;;;34.47;18.48;;;;;;;;;;5012701;28;20033;-56
2021/07/18 02:28:27;;;;;;;37.20;18.95;;;;;;;;;;5008663;28;20046;-55
2021/07/18 02:30:53;;;;;;;34.80;20.48;;;;;;;;;;5010335;28;20106;-55
2021/07/18 02:33:19;;;;;;;44.65;19.75;;;;;;;;;;5004000;28;20051;-55
2021/07/18 02:35:45;;;;;;;35.45;19.48;;;;;;;;;;5007365;28;20060;-53
2021/07/18 02:38:11;;;;;;;34.58;20.23;;;;;;;;;;5008067;28;20077;-56
2021/07/18 02:40:37;;;;;;;30.67;18.75;;;;;;;;;;5006789;28;20069;-56
2021/07/18 02:43:02;;;;;;;35.75;18.98;;;;;;;;;;5006872;28;20038;-55
2021/07/18 02:45:30;;;;;;;34.88;19.38;;;;;;;;;;5000434;28;20049;-56
2021/07/18 02:47:56;;;;;;;34.65;19.40;;;;;;;;;;5009234;28;20033;-55
2021/07/18 02:50:29;;;;;;;34.25;20.38;;;;;;;;;;5011026;28;20077;-55
2021/07/18 02:52:55;;;;;;;41.20;21.45;;;;;;;;;;5009118;28;20772;-56
2021/07/18 02:55:22;;;;;;;39.20;22.05;;;;;;;;;;5007684;28;20053;-54
2021/07/18 02:57:48;;;;;;;40.95;21.70;;;;;;;;;;5009732;28;20395;-55
2021/07/18 03:00:15;;;;;;;38.03;21.65;;;;;;;;;;5010175;28;20072;-54
2021/07/18 03:02:41;;;;;;;40.72;22.98;;;;;;;;;;5014112;28;20539;-55
2021/07/18 03:05:08;;;;;;;45.03;24.15;;;;;;;;;;5016991;28;20697;-55
2021/07/18 03:07:33;;;;;;;51.67;24.33;;;;;;;;;;5017813;28;20079;-53
2021/07/18 03:09:59;;;;;;;51.58;25.05;;;;;;;;;;5014634;28;20042;-55
2021/07/18 03:12:25;;;;;;;51.40;26.05;;;;;;;;;;5015728;28;20030;-55
2021/07/18 03:14:51;;;;;;;54.00;25.58;;;;;;;;;;5015015;28;20092;-55
2021/07/18 03:17:17;;;;;;;52.10;26.85;;;;;;;;;;5014898;28;20087;-56
2021/07/18 03:19:43;;;;;;;49.75;26.60;;;;;;;;;;5014561;28;20047;-55
2021/07/18 03:22:08;;;;;;;47.53;26.02;;;;;;;;;;5014541;28;20057;-53
2021/07/18 03:24:34;;;;;;;50.03;26.08;;;;;;;;;;5014323;28;20049;-53
2021/07/18 03:27:00;;;;;;;48.42;27.20;;;;;;;;;;5014717;28;20093;-56
2021/07/18 03:29:26;;;;;;;53.90;27.00;;;;;;;;;;5014346;28;20069;-54
2021/07/18 03:31:52;;;;;;;50.30;27.00;;;;;;;;;;5015228;28;20038;-53
2021/07/18 03:34:18;;;;;;;49.55;28.30;;;;;;;;;;5014220;28;20437;-55
2021/07/18 03:36:44;;;;;;;55.78;28.88;;;;;;;;;;5013232;28;20452;-54
2021/07/18 03:39:10;;;;;;;48.83;26.98;;;;;;;;;;5016636;28;20410;-55
2021/07/18 03:41:36;;;;;;;56.08;27.65;;;;;;;;;;5014379;28;20156;-53
2021/07/18 03:44:02;;;;;;;53.92;28.58;;;;;;;;;;5014984;28;20084;-55
2021/07/18 03:46:27;;;;;;;56.22;28.83;;;;;;;;;;5015118;28;21999;-54
2021/07/18 03:48:53;;;;;;;57.75;30.50;;;;;;;;;;5016435;28;20048;-53
2021/07/18 03:51:19;;;;;;;49.63;28.17;;;;;;;;;;5014442;28;20537;-56
2021/07/18 03:53:45;;;;;;;50.80;26.73;;;;;;;;;;5014837;28;20038;-55
2021/07/18 03:56:11;;;;;;;53.00;29.63;;;;;;;;;;5015505;28;20058;-55
2021/07/18 03:58:37;;;;;;;60.28;31.33;;;;;;;;;;5016051;28;20041;-53
2021/07/18 04:01:09;;;;;;;65.40;31.25;;;;;;;;;;5015260;28;20047;-54
2021/07/18 04:03:35;;;;;;;65.38;30.60;;;;;;;;;;5013673;28;20045;-53
2021/07/18 04:06:03;;;;;;;61.10;31.90;;;;;;;;;;5016713;28;20044;-54
2021/07/18 04:08:29;;;;;;;56.60;31.58;;;;;;;;;;5014741;28;20084;-55
2021/07/18 04:10:54;;;;;;;56.90;30.65;;;;;;;;;;5015875;28;20042;-52
2021/07/18 04:13:20;;;;;;;66.50;33.08;;;;;;;;;;5009374;28;20049;-57
2021/07/18 04:15:46;;;;;;;62.55;30.58;;;;;;;;;;5025957;28;20454;-54
2021/07/18 04:18:12;;;;;;;59.35;31.27;;;;;;;;;;5014906;28;20046;-54
2021/07/18 04:20:38;;;;;;;66.13;32.70;;;;;;;;;;5012650;28;20044;-55
2021/07/18 04:23:04;;;;;;;67.85;31.70;;;;;;;;;;5013860;28;20079;-55
2021/07/18 04:25:30;;;;;;;37.85;21.63;;;;;;;;;;5013353;28;20076;-55
2021/07/18 04:27:56;;;;;;;59.08;31.63;;;;;;;;;;5015944;28;20057;-53
2021/07/18 04:30:22;;;;;;;56.58;30.77;;;;;;;;;;5014555;28;20044;-56
2021/07/18 04:32:49;;;;;;;62.05;33.67;;;;;;;;;;5018143;28;20056;-53
2021/07/18 04:35:15;;;;;;;61.90;32.90;;;;;;;;;;5016620;28;20045;-51
2021/07/18 04:37:41;;;;;;;62.08;32.72;;;;;;;;;;5016508;28;20046;-55
2021/07/18 04:40:07;;;;;;;57.63;32.83;;;;;;;;;;5014877;28;20840;-52
2021/07/18 04:42:33;;;;;;;62.63;32.92;;;;;;;;;;5012235;28;20105;-54
2021/07/18 04:44:59;;;;;;;63.25;34.97;;;;;;;;;;5014383;28;20133;-55
2021/07/18 04:47:25;;;;;;;67.95;32.75;;;;;;;;;;5012451;28;20060;-53
2021/07/18 04:49:52;;;;;;;68.20;35.88;;;;;;;;;;5020432;28;20042;-54
2021/07/18 04:52:18;;;;;;;69.10;35.95;;;;;;;;;;5013578;28;20032;-54
2021/07/18 04:54:44;;;;;;;55.03;30.75;;;;;;;;;;5012901;28;20042;-54
2021/07/18 04:57:10;;;;;;;72.00;37.88;;;;;;;;;;5012457;28;20053;-53
2021/07/18 04:59:37;;;;;;;75.47;36.78;;;;;;;;;;5010532;28;20100;-54
2021/07/18 05:02:03;;;;;;;75.45;37.42;;;;;;;;;;5000052;28;20037;-55
2021/07/18 05:04:29;;;;;;;68.45;36.25;;;;;;;;;;5010529;28;20072;-54
2021/07/18 05:06:55;;;;;;;70.60;37.25;;;;;;;;;;5011092;28;20055;-54
2021/07/18 05:09:21;;;;;;;74.75;36.90;;;;;;;;;;5013674;28;20045;-55
2021/07/18 05:11:46;;;;;;;66.25;36.33;;;;;;;;;;5012069;28;20041;-55
2021/07/18 05:14:12;;;;;;;71.65;36.20;;;;;;;;;;5014472;28;20534;-53
2021/07/18 05:16:38;;;;;;;68.32;36.72;;;;;;;;;;5010173;28;20053;-51
2021/07/18 05:19:04;;;;;;;70.03;37.20;;;;;;;;;;5010315;28;20042;-54
2021/07/18 05:21:30;;;;;;;71.63;37.15;;;;;;;;;;5011003;28;20042;-55
2021/07/18 05:23:56;;;;;;;82.35;39.42;;;;;;;;;;5011232;28;20509;-55
2021/07/18 05:26:21;;;;;;;71.60;37.60;;;;;;;;;;5009272;28;20037;-53
2021/07/18 05:28:47;;;;;;;73.15;39.03;;;;;;;;;;5011716;28;20148;-51
2021/07/18 05:31:13;;;;;;;77.28;39.42;;;;;;;;;;5012359;28;20044;-52
2021/07/18 05:33:39;;;;;;;79.47;39.22;;;;;;;;;;5010397;28;20601;-52
2021/07/18 05:36:08;;;;;;;69.88;36.10;;;;;;;;;;5010562;28;20053;-54
2021/07/18 05:38:36;;;;;;;65.72;36.75;;;;;;;;;;5011185;28;20127;-55
2021/07/18 05:41:02;;;;;;;69.40;36.33;;;;;;;;;;5010158;28;20155;-54
2021/07/18 05:43:27;;;;;;;67.78;35.55;;;;;;;;;;5008828;28;20144;-55
2021/07/18 05:45:53;;;;;;;74.25;36.92;;;;;;;;;;5010147;28;20041;-55
2021/07/18 05:48:23;;;;;;;67.10;36.13;;;;;;;;;;5009511;28;20065;-52
2021/07/18 05:50:49;;;;;;;55.92;31.98;;;;;;;;;;5011447;28;20045;-54
2021/07/18 05:53:15;;;;;;;68.65;36.22;;;;;;;;;;5013321;28;20526;-54
2021/07/18 05:55:41;;;;;;;67.00;35.58;;;;;;;;;;5011443;28;20410;-52
2021/07/18 05:58:07;;;;;;;65.65;35.42;;;;;;;;;;5010046;28;20083;-53
2021/07/18 06:00:32;;;;;;;66.35;36.33;;;;;;;;;;5010509;28;20133;-55
2021/07/18 06:02:58;;;;;;;79.97;39.88;;;;;;;;;;5009784;28;20052;-55
2021/07/18 06:05:24;;;;;;;66.10;36.38;;;;;;;;;;5009337;28;20121;-55
2021/07/18 06:07:50;;;;;;;79.80;42.10;;;;;;;;;;5010543;28;20049;-53
2021/07/18 06:10:16;;;;;;;85.10;42.25;;;;;;;;;;5011133;28;20041;-54
2021/07/18 06:12:41;;;;;;;82.18;42.40;;;;;;;;;;5009973;28;20046;-54
2021/07/18 06:15:07;;;;;;;78.05;40.13;;;;;;;;;;5010350;28;20038;-54
2021/07/18 06:17:37;;;;;;;79.65;41.58;;;;;;;;;;5010310;28;20407;-54
2021/07/18 06:20:07;;;;;;;83.53;41.45;;;;;;;;;;5011679;28;20046;-52
2021/07/18 06:22:33;;;;;;;80.63;45.05;;;;;;;;;;5011249;28;20052;-54
2021/07/18 06:24:59;;;;;;;83.13;46.03;;;;;;;;;;5026776;28;20037;-52
2021/07/18 06:27:24;;;;;;;80.30;43.33;;;;;;;;;;5011009;28;20053;-53
2021/07/18 06:29:50;;;;;;;81.82;44.22;;;;;;;;;;5010994;28;20152;-55
2021/07/18 06:32:16;;;;;;;82.95;44.00;;;;;;;;;;5010206;28;20525;-52
2021/07/18 06:34:42;;;;;;;83.93;44.00;;;;;;;;;;5010953;28;21953;-55
2021/07/18 06:37:08;;;;;;;87.22;42.97;;;;;;;;;;5016061;28;20045;-54
2021/07/18 06:39:33;;;;;;;86.45;43.45;;;;;;;;;;5010206;28;20409;-55
2021/07/18 06:41:59;;;;;;;83.28;42.80;;;;;;;;;;5010294;28;20411;-55
2021/07/18 06:44:25;;;;;;;89.13;43.67;;;;;;;;;;5008777;28;20046;-53
2021/07/18 06:46:51;;;;;;;86.28;41.30;;;;;;;;;;5009860;28;20060;-51
2021/07/18 06:49:17;;;;;;;79.85;44.50;;;;;;;;;;5008733;28;20037;-55
2021/07/18 06:51:43;;;;;;;83.13;45.50;;;;;;;;;;5009644;28;20046;-54
2021/07/18 06:54:08;;;;;;;86.60;43.67;;;;;;;;;;5009045;28;20454;-53
2021/07/18 06:56:34;;;;;;;90.63;44.55;;;;;;;;;;5009717;28;20056;-54
2021/07/18 06:59:00;;;;;;;89.18;46.25;;;;;;;;;;5011848;28;20065;-52
2021/07/18 07:01:27;;;;;;;81.32;44.13;;;;;;;;;;5007967;28;20053;-54
2021/07/18 07:03:53;;;;;;;88.32;46.22;;;;;;;;;;5012504;28;20048;-52
2021/07/18 07:06:18;;;;;;;92.60;46.42;;;;;;;;;;5010462;28;20042;-52
2021/07/18 07:08:44;;;;;;;87.50;46.40;;;;;;;;;;5012241;28;20050;-52
2021/07/18 07:11:10;;;;;;;95.35;46.17;;;;;;;;;;5011263;28;20073;-53
2021/07/18 07:13:36;;;;;;;94.10;49.40;;;;;;;;;;5010069;28;20041;-54
2021/07/18 07:16:02;;;;;;;95.65;49.95;;;;;;;;;;5010269;28;21967;-55
2021/07/18 07:18:28;;;;;;;102.50;50.58;;;;;;;;;;5005972;28;20065;-55
2021/07/18 07:20:54;;;;;;;100.07;51.83;;;;;;;;;;5009858;28;20042;-54
2021/07/18 07:23:19;;;;;;;100.38;52.03;;;;;;;;;;5008663;28;20073;-54
2021/07/18 07:25:45;;;;;;;102.30;51.25;;;;;;;;;;5012626;28;20100;-51
2021/07/18 07:28:11;;;;;;;104.05;54.40;;;;;;;;;;5011632;28;20060;-54
2021/07/18 07:30:37;;;;;;;102.00;52.47;;;;;;;;;;5006844;28;20029;-54
2021/07/18 07:33:04;;;;;;;106.07;55.08;;;;;;;;;;5011285;28;20041;-55
2021/07/18 07:35:29;;;;;;;108.80;55.65;;;;;;;;;;5010011;28;20048;-54
2021/07/18 07:37:55;;;;;;;112.60;57.92;;;;;;;;;;5009948;28;20045;-54
2021/07/18 07:40:21;;;;;;;103.38;57.10;;;;;;;;;;5010499;28;20060;-55
2021/07/18 07:42:47;;;;;;;104.03;49.22;;;;;;;;;;5010140;28;20498;-54
2021/07/18 07:45:14;;;;;;;103.97;51.97;;;;;;;;;;5010475;28;20049;-54
2021/07/18 07:47:40;;;;;;;108.50;54.70;;;;;;;;;;5013829;28;20041;-55
2021/07/18 07:50:07;;;;;;;113.20;55.03;;;;;;;;;;5013633;28;20057;-52
2021/07/18 07:52:33;;;;;;;110.30;55.92;;;;;;;;;;5012506;28;20029;-53
2021/07/18 07:55:00;;;;;;;104.63;54.47;;;;;;;;;;5012141;28;20045;-54
2021/07/18 07:57:26;;;;;;;119.50;61.22;;;;;;;;;;5012167;28;20049;-55
2021/07/18 07:59:51;;;;;;;115.60;61.63;;;;;;;;;;5012208;28;20036;-55
2021/07/18 08:02:17;;;;;;;129.15;64.10;;;;;;;;;;5011118;28;20084;-55
2021/07/18 08:04:43;;;;;;;124.00;63.75;;;;;;;;;;5012194;28;20739;-54
2021/07/18 08:07:09;;;;;;;130.52;68.38;;;;;;;;;;5012588;28;20038;-54
2021/07/18 08:09:35;;;;;;;132.93;67.18;;;;;;;;;;5012960;28;20038;-53
2021/07/18 08:12:01;;;;;;;141.63;71.72;;;;;;;;;;5013378;28;20092;-53
2021/07/18 08:14:27;;;;;;;139.13;69.68;;;;;;;;;;5009098;28;20705;-54
2021/07/18 08:16:52;;;;;;;147.90;75.05;;;;;;;;;;5011728;28;20067;-54
2021/07/18 08:19:18;;;;;;;139.40;71.93;;;;;;;;;;5011593;28;20615;-53
2021/07/18 08:21:44;;;;;;;143.93;73.45;;;;;;;;;;5009445;28;20095;-53
2021/07/18 08:24:10;;;;;;;147.57;71.40;;;;;;;;;;5013284;28;20088;-53
2021/07/18 08:26:36;;;;;;;150.80;71.55;;;;;;;;;;5012691;28;20073;-54
2021/07/18 08:29:03;;;;;;;144.40;74.30;;;;;;;;;;5012662;28;20438;-55
2021/07/18 08:31:29;;;;;;;148.48;75.78;;;;;;;;;;5010415;28;20053;-51
2021/07/18 08:33:55;;;;;;;151.50;77.00;;;;;;;;;;5019823;28;20037;-54
2021/07/18 08:36:21;;;;;;;151.98;74.05;;;;;;;;;;5010951;28;21135;-54
2021/07/18 08:38:47;;;;;;;145.95;74.25;;;;;;;;;;5012276;28;20033;-53
2021/07/18 08:41:13;;;;;;;142.27;73.88;;;;;;;;;;5024793;28;20072;-52
2021/07/18 08:43:40;;;;;;;151.75;78.03;;;;;;;;;;5014317;28;20048;-54
2021/07/18 08:46:05;;;;;;;157.65;73.68;;;;;;;;;;5013479;28;20526;-55
2021/07/18 08:48:31;;;;;;;149.38;75.05;;;;;;;;;;5012522;28;20046;-54
2021/07/18 08:50:58;;;;;;;157.40;78.55;;;;;;;;;;5011540;28;20113;-58
2021/07/18 08:53:27;;;;;;;157.38;80.88;;;;;;;;;;5013015;28;20038;-53
2021/07/18 08:55:53;;;;;;;164.70;80.93;;;;;;;;;;5012496;28;20049;-55
2021/07/18 08:58:19;;;;;;;165.68;79.88;;;;;;;;;;5010410;28;20045;-51
2021/07/18 09:00:45;;;;;;;160.10;77.07;;;;;;;;;;5009534;28;20128;-53
2021/07/18 09:03:15;;;;;;;152.93;80.45;;;;;;;;;;5013831;28;20056;-55
2021/07/18 09:05:40;;;;;;;165.10;81.75;;;;;;;;;;5010576;28;20091;-52
2021/07/18 09:08:08;;;;;;;165.48;79.75;;;;;;;;;;5012400;28;20139;-54
2021/07/18 09:10:34;;;;;;;164.65;78.97;;;;;;;;;;5011922;28;20029;-52
2021/07/18 09:13:05;;;;;;;153.65;75.20;;;;;;;;;;5010842;28;20475;-54
2021/07/18 09:15:39;;;;;;;162.98;80.22;;;;;;;;;;5011751;28;20395;-52
2021/07/18 09:18:13;;;;;;;157.55;77.28;;;;;;;;;;5014675;28;20053;-54
2021/07/18 09:20:40;;;;;;;169.23;76.78;;;;;;;;;;5013336;28;20836;-54
2021/07/18 09:23:10;;;;;;;171.70;84.10;;;;;;;;;;5012254;28;20038;-55
2021/07/18 09:25:36;;;;;;;169.52;83.53;;;;;;;;;;5011786;28;20052;-53
2021/07/18 09:28:21;;;;;;;164.25;81.13;;;;;;;;;;5014799;28;20036;-54
2021/07/18 09:30:48;;;;;;;163.93;79.78;;;;;;;;;;5013359;28;20088;-54
2021/07/18 09:33:27;;;;;;;161.50;77.82;;;;;;;;;;5015530;28;20426;-51
2021/07/18 09:36:12;;;;;;;176.35;83.68;;;;;;;;;;5013753;28;20753;-53
2021/07/18 09:38:39;;;;;;;180.68;86.40;;;;;;;;;;5014827;28;20113;-54
2021/07/18 09:41:05;;;;;;;178.70;83.07;;;;;;;;;;5012632;28;20049;-51
2021/07/18 09:43:31;;;;;;;187.63;86.35;;;;;;;;;;5009800;28;20042;-54
2021/07/18 09:46:07;;;;;;;192.32;86.28;;;;;;;;;;5018484;28;20491;-53
2021/07/18 09:48:36;;;;;;;187.27;87.22;;;;;;;;;;5009908;28;20041;-53
2021/07/18 09:51:09;;;;;;;189.63;90.10;;;;;;;;;;5011294;28;20068;-54
2021/07/18 09:53:35;;;;;;;194.50;87.75;;;;;;;;;;5010202;28;20042;-54
2021/07/18 09:56:09;;;;;;;192.20;90.53;;;;;;;;;;5010041;28;20102;-54
2021/07/18 09:59:00;;;;;;;184.35;87.10;;;;;;;;;;5008932;28;20056;-54
2021/07/18 10:01:26;;;;;;;183.20;89.07;;;;;;;;;;5007969;28;20030;-54
2021/07/18 10:03:54;;;;;;;193.48;87.30;;;;;;;;;;5009638;28;20075;-55
2021/07/18 10:06:23;;;;;;;205.43;91.00;;;;;;;;;;5009497;28;20045;-54
2021/07/18 10:08:53;;;;;;;190.02;89.88;;;;;;;;;;5010425;28;20826;-53
2021/07/18 10:11:23;;;;;;;183.07;87.57;;;;;;;;;;5009114;28;20041;-55
2021/07/18 10:13:49;;;;;;;187.15;82.85;;;;;;;;;;5010281;28;20041;-51
2021/07/18 10:16:16;;;;;;;192.13;86.65;;;;;;;;;;5009514;28;20046;-54
2021/07/18 10:18:43;;;;;;;185.32;85.28;;;;;;;;;;5008867;28;20029;-51
2021/07/18 10:21:11;;;;;;;183.65;84.50;;;;;;;;;;5008225;28;20054;-55
2021/07/18 10:23:38;;;;;;;199.05;89.00;;;;;;;;;;5009479;28;20155;-53
2021/07/18 10:26:04;;;;;;;192.98;89.38;;;;;;;;;;5009916;28;20084;-54
2021/07/18 10:28:30;;;;;;;195.70;90.72;;;;;;;;;;5009673;28;20064;-55
2021/07/18 10:30:58;;;;;;;180.93;83.80;;;;;;;;;;5013137;28;20111;-54
2021/07/18 10:33:24;;;;;;;205.27;90.65;;;;;;;;;;5008276;28;20561;-53
2021/07/18 10:35:51;;;;;;;191.13;88.55;;;;;;;;;;5009291;28;20037;-54
2021/07/18 10:38:18;;;;;;;195.10;90.07;;;;;;;;;;5010053;28;20073;-54
2021/07/18 10:40:55;;;;;;;191.80;88.28;;;;;;;;;;5007130;28;20161;-54
2021/07/18 10:43:37;;;;;;;203.48;90.57;;;;;;;;;;5004814;28;20740;-54
2021/07/18 10:46:04;;;;;;;197.20;86.57;;;;;;;;;;5009393;28;20445;-53
2021/07/18 10:48:43;;;;;;;194.77;89.85;;;;;;;;;;5010367;28;20471;-50
2021/07/18 10:51:09;;;;;;;197.27;90.95;;;;;;;;;;5009909;28;20033;-53
2021/07/18 10:53:35;;;;;;;200.75;91.03;;;;;;;;;;5010208;28;20040;-53
2021/07/18 10:56:04;;;;;;;208.48;93.20;;;;;;;;;;5009940;28;20045;-51
2021/07/18 10:58:39;;;;;;;213.57;91.30;;;;;;;;;;5009036;28;20068;-53
2021/07/18 11:01:05;;;;;;;200.65;89.95;;;;;;;;;;5008168;28;20057;-51
2021/07/18 11:03:40;;;;;;;216.63;93.10;;;;;;;;;;5008452;28;20491;-53
2021/07/18 11:06:27;;;;;;;204.50;92.68;;;;;;;;;;5008180;28;20054;-54
2021/07/18 11:09:16;;;;;;;213.95;93.38;;;;;;;;;;5014249;28;20045;-53
2021/07/18 11:11:49;;;;;;;212.93;94.60;;;;;;;;;;5011800;28;20077;-51
2021/07/18 11:14:25;;;;;;;217.13;95.57;;;;;;;;;;5015597;28;20554;-51
2021/07/18 11:16:53;;;;;;;217.93;93.93;;;;;;;;;;5011944;28;20053;-55
2021/07/18 11:19:40;;;;;;;208.48;96.30;;;;;;;;;;5009070;28;20034;-53
2021/07/18 11:22:07;;;;;;;220.43;98.65;;;;;;;;;;5011992;28;20037;-54
2021/07/18 11:24:45;;;;;;;214.73;94.13;;;;;;;;;;5012779;28;20135;-54
2021/07/18 11:27:26;;;;;;;215.90;95.57;;;;;;;;;;5012968;28;20050;-51
2021/07/18 11:29:53;;;;;;;218.57;97.65;;;;;;;;;;5014524;28;20510;-53
2021/07/18 11:32:22;;;;;;;217.57;98.65;;;;;;;;;;5011886;28;20045;-51
2021/07/18 11:34:48;;;;;;;213.90;100.30;;;;;;;;;;5015252;28;20752;-52
2021/07/18 11:37:17;;;;;;;208.93;93.80;;;;;;;;;;5014012;28;20054;-51
2021/07/18 11:39:44;;;;;;;225.48;99.10;;;;;;;;;;5012038;28;20045;-52
2021/07/18 11:42:11;;;;;;;223.77;98.22;;;;;;;;;;5011274;28;20052;-54
2021/07/18 11:44:39;;;;;;;227.63;99.45;;;;;;;;;;5013096;28;20067;-54
2021/07/18 11:47:07;;;;;;;228.80;96.80;;;;;;;;;;5012302;28;20029;-54
2021/07/18 11:49:34;;;;;;;213.32;98.82;;;;;;;;;;5012684;28;20037;-51
2021/07/18 11:52:01;;;;;;;216.85;100.45;;;;;;;;;;5014482;28;20038;-51
2021/07/18 11:54:27;;;;;;;227.35;99.88;;;;;;;;;;5012420;28;20041;-54
2021/07/18 11:56:53;;;;;;;225.02;97.30;;;;;;;;;;5014570;28;20503;-55
2021/07/18 11:59:20;;;;;;;232.75;101.25;;;;;;;;;;5011595;28;20057;-55
2021/07/18 12:01:49;;;;;;;255.73;104.38;;;;;;;;;;5013566;28;20092;-54
2021/07/18 12:04:19;;;;;;;215.90;98.85;;;;;;;;;;5014217;28;20041;-54
2021/07/18 12:06:45;;;;;;;214.90;97.28;;;;;;;;;;5012384;28;20140;-55
2021/07/18 12:09:12;;;;;;;224.68;98.55;;;;;;;;;;5013974;28;20558;-54
2021/07/18 12:11:38;;;;;;;225.95;97.70;;;;;;;;;;5015002;28;20040;-54
2021/07/18 12:14:04;;;;;;;225.15;95.95;;;;;;;;;;5013302;28;20591;-53
2021/07/18 12:16:30;;;;;;;228.02;99.93;;;;;;;;;;5012275;28;20061;-54
2021/07/18 12:18:56;;;;;;;221.40;99.32;;;;;;;;;;5028235;28;20037;-54
2021/07/18 12:21:26;;;;;;;230.35;101.20;;;;;;;;;;5011303;28;20026;-55
2021/07/18 12:24:10;;;;;;;213.10;97.88;;;;;;;;;;5012823;28;20037;-54
2021/07/18 12:26:37;;;;;;;225.93;98.25;;;;;;;;;;5013491;28;20042;-51
2021/07/18 12:29:03;;;;;;;215.00;94.75;;;;;;;;;;5014572;28;20041;-54
2021/07/18 12:31:29;;;;;;;220.70;97.78;;;;;;;;;;5014559;28;20577;-53
2021/07/18 12:33:55;;;;;;;232.07;99.70;;;;;;;;;;5013796;28;20100;-54
2021/07/18 12:36:21;;;;;;;218.10;99.57;;;;;;;;;;5012258;28;20479;-51
2021/07/18 12:38:47;;;;;;;202.85;96.80;;;;;;;;;;5010620;28;20069;-52
2021/07/18 12:41:12;;;;;;;227.15;95.53;;;;;;;;;;5010344;28;20060;-52
2021/07/18 12:43:39;;;;;;;206.48;96.15;;;;;;;;;;5011603;28;20085;-51
2021/07/18 12:46:04;;;;;;;229.90;99.45;;;;;;;;;;5012353;28;20048;-52
2021/07/18 12:48:30;;;;;;;223.02;96.68;;;;;;;;;;5012055;28;20041;-52
2021/07/18 12:50:56;;;;;;;220.98;97.90;;;;;;;;;;5013347;28;20158;-55
2021/07/18 12:53:22;;;;;;;206.70;95.93;;;;;;;;;;5012054;28;20045;-54
2021/07/18 12:55:48;;;;;;;236.48;98.18;;;;;;;;;;5013129;28;20053;-54
2021/07/18 12:58:20;;;;;;;210.68;96.97;;;;;;;;;;5028183;28;20065;-51
2021/07/18 13:00:47;;;;;;;211.68;95.55;;;;;;;;;;5013220;28;20042;-54
2021/07/18 13:03:22;;;;;;;211.93;95.85;;;;;;;;;;5015811;28;20097;-53
2021/07/18 13:05:48;;;;;;;210.20;96.30;;;;;;;;;;5012821;28;20096;-54
2021/07/18 13:08:32;;;;;;;214.00;98.35;;;;;;;;;;5015685;28;20069;-52
2021/07/18 13:10:58;;;;;;;205.45;93.68;;;;;;;;;;5010006;28;20052;-55
2021/07/18 13:13:29;;;;;;;216.20;97.53;;;;;;;;;;5010767;28;20062;-51
2021/07/18 13:16:05;;;;;;;208.35;98.75;;;;;;;;;;5012406;28;20034;-54
2021/07/18 13:18:34;;;;;;;212.13;96.38;;;;;;;;;;5011095;28;20515;-55
2021/07/18 13:21:13;;;;;;;219.85;98.53;;;;;;;;;;5009219;28;20045;-54
2021/07/18 13:23:40;;;;;;;210.15;97.82;;;;;;;;;;5011944;28;20038;-53
2021/07/18 13:26:06;;;;;;;221.02;99.10;;;;;;;;;;5014217;28;20160;-55
2021/07/18 13:28:33;;;;;;;222.68;95.63;;;;;;;;;;5011452;28;20550;-52
2021/07/18 13:30:59;;;;;;;217.68;98.05;;;;;;;;;;5011056;28;20046;-54
2021/07/18 13:33:25;;;;;;;224.63;98.13;;;;;;;;;;5010995;28;20041;-54
2021/07/18 13:35:52;;;;;;;217.48;99.20;;;;;;;;;;5010262;28;20059;-53
2021/07/18 13:38:24;;;;;;;207.70;96.38;;;;;;;;;;5009624;28;20071;-53
2021/07/18 13:40:50;;;;;;;206.88;96.80;;;;;;;;;;5009054;28;20096;-55
2021/07/18 13:43:17;;;;;;;219.43;99.80;;;;;;;;;;5011690;28;20103;-55
2021/07/18 13:45:47;;;;;;;211.35;99.45;;;;;;;;;;5013361;28;20042;-54
2021/07/18 13:48:15;;;;;;;229.10;102.10;;;;;;;;;;5013577;28;20060;-55
2021/07/18 13:50:42;;;;;;;230.38;98.35;;;;;;;;;;5009854;28;20045;-55
2021/07/18 13:53:08;;;;;;;213.90;99.03;;;;;;;;;;5010486;28;20038;-56
2021/07/18 13:55:35;;;;;;;223.32;96.28;;;;;;;;;;5007695;28;20045;-55
2021/07/18 13:58:01;;;;;;;229.13;98.22;;;;;;;;;;5011890;28;20045;-51
2021/07/18 14:00:27;;;;;;;220.18;97.13;;;;;;;;;;5008490;28;20049;-55
2021/07/18 14:02:53;;;;;;;224.02;100.20;;;;;;;;;;5009195;28;20048;-55
2021/07/18 14:05:19;;;;;;;197.57;93.43;;;;;;;;;;5016372;28;20084;-54
2021/07/18 14:07:44;;;;;;;227.02;97.13;;;;;;;;;;5013146;28;20070;-56
2021/07/18 14:10:11;;;;;;;210.30;95.82;;;;;;;;;;5012778;28;20506;-56
2021/07/18 14:12:40;;;;;;;209.00;93.95;;;;;;;;;;5010087;28;20033;-53